sensor_id;sensor_type;location;lat;lon;timestamp;temperature;humidity
29891;DHT22;16759;49.540;8.642;2022-10-31T00:00:24;12.10;99.90
29891;DHT22;16759;49.540;8.642;2022-10-31T00:02:49;12.20;99.90
29891;DHT22;16759;49.540;8.642;2022-10-31T00:05:14;12.20;99.90
29891;DHT22;16759;49.540;8.642;2022-10-31T00:07:40;12.00;99.90
29891;DHT22;16759;49.540;8.642;2022-10-31T00:10:06;12.30;99.90
29891;DHT22;16759;49.540;8.642;2022-10-31T00:12:31;11.90;99.90
29891;DHT22;16759;49.540;8.642;2022-10-31T00:14:57;12.10;99.90
29891;DHT22;16759;49.540;8.642;2022-10-31T00:17:22;12.00;99.90
29891;DHT22;16759;49.540;8.642;2022-10-31T00:19:48;11.80;99.90
29891;DHT22;16759;49.540;8.642;2022-10-31T00:22:13;11.70;99.90
29891;DHT22;16759;49.540;8.642;2022-10-31T00:24:39;11.70;99.90
29891;DHT22;16759;49.540;8.642;2022-10-31T00:27:04;11.40;99.90
29891;DHT22;16759;49.540;8.642;2022-10-31T00:29:30;11.60;99.90
29891;DHT22;16759;49.540;8.642;2022-10-31T00:31:55;11.50;99.90
29891;DHT22;16759;49.540;8.642;2022-10-31T00:34:20;11.40;99.90
29891;DHT22;16759;49.540;8.642;2022-10-31T00:36:46;11.20;99.90
29891;DHT22;16759;49.540;8.642;2022-10-31T00:39:14;11.30;99.90
29891;DHT22;16759;49.540;8.642;2022-10-31T00:41:39;11.30;99.90
29891;DHT22;16759;49.540;8.642;2022-10-31T00:44:05;11.20;99.90
29891;DHT22;16759;49.540;8.642;2022-10-31T00:46:30;11.20;99.90
29891;DHT22;16759;49.540;8.642;2022-10-31T00:48:56;11.20;99.90
29891;DHT22;16759;49.540;8.642;2022-10-31T00:51:21;11.20;99.90
29891;DHT22;16759;49.540;8.642;2022-10-31T00:53:47;11.20;99.90
29891;DHT22;16759;49.540;8.642;2022-10-31T00:56:12;11.30;99.90
29891;DHT22;16759;49.540;8.642;2022-10-31T00:58:38;11.30;99.90
29891;DHT22;16759;49.540;8.642;2022-10-31T01:01:05;11.40;99.90
29891;DHT22;16759;49.540;8.642;2022-10-31T01:03:33;10.90;99.90
29891;DHT22;16759;49.540;8.642;2022-10-31T01:06:00;11.20;99.90
29891;DHT22;16759;49.540;8.642;2022-10-31T01:08:26;11.10;99.90
29891;DHT22;16759;49.540;8.642;2022-10-31T01:11:01;11.00;99.90
29891;DHT22;16759;49.540;8.642;2022-10-31T01:13:27;11.20;99.90
29891;DHT22;16759;49.540;8.642;2022-10-31T01:15:56;11.30;99.90
29891;DHT22;16759;49.540;8.642;2022-10-31T01:18:24;11.20;99.90
29891;DHT22;16759;49.540;8.642;2022-10-31T01:21:24;11.20;99.90
29891;DHT22;16759;49.540;8.642;2022-10-31T01:23:42;11.20;99.90
29891;DHT22;16759;49.540;8.642;2022-10-31T01:28:34;11.50;99.90
29891;DHT22;16759;49.540;8.642;2022-10-31T01:31:00;11.20;99.90
29891;DHT22;16759;49.540;8.642;2022-10-31T01:33:25;11.40;99.90
29891;DHT22;16759;49.540;8.642;2022-10-31T01:35:51;11.20;99.90
29891;DHT22;16759;49.540;8.642;2022-10-31T01:38:16;11.10;99.90
29891;DHT22;16759;49.540;8.642;2022-10-31T01:40:41;11.10;99.90
29891;DHT22;16759;49.540;8.642;2022-10-31T01:43:10;11.30;99.90
29891;DHT22;16759;49.540;8.642;2022-10-31T01:45:36;11.30;99.90
29891;DHT22;16759;49.540;8.642;2022-10-31T01:48:02;11.10;99.90
29891;DHT22;16759;49.540;8.642;2022-10-31T01:50:30;11.10;99.90
29891;DHT22;16759;49.540;8.642;2022-10-31T01:52:58;11.20;99.90
29891;DHT22;16759;49.540;8.642;2022-10-31T01:55:30;11.00;99.90
29891;DHT22;16759;49.540;8.642;2022-10-31T01:58:01;11.20;99.90
29891;DHT22;16759;49.540;8.642;2022-10-31T02:00:28;11.30;99.90
29891;DHT22;16759;49.540;8.642;2022-10-31T02:02:54;11.00;99.90
29891;DHT22;16759;49.540;8.642;2022-10-31T02:05:22;11.30;99.90
29891;DHT22;16759;49.540;8.642;2022-10-31T02:07:51;11.40;99.90
29891;DHT22;16759;49.540;8.642;2022-10-31T02:10:17;11.40;99.90
29891;DHT22;16759;49.540;8.642;2022-10-31T02:12:44;11.20;99.90
29891;DHT22;16759;49.540;8.642;2022-10-31T02:15:12;11.20;99.90
29891;DHT22;16759;49.540;8.642;2022-10-31T02:17:37;11.30;99.90
29891;DHT22;16759;49.540;8.642;2022-10-31T02:23:10;11.40;99.90
29891;DHT22;16759;49.540;8.642;2022-10-31T02:33:35;11.30;99.90
29891;DHT22;16759;49.540;8.642;2022-10-31T02:38:38;11.20;99.90
29891;DHT22;16759;49.540;8.642;2022-10-31T02:41:10;11.30;99.90
29891;DHT22;16759;49.540;8.642;2022-10-31T02:49:08;11.40;99.90
29891;DHT22;16759;49.540;8.642;2022-10-31T02:51:37;11.50;99.90
29891;DHT22;16759;49.540;8.642;2022-10-31T02:54:02;11.50;99.90
29891;DHT22;16759;49.540;8.642;2022-10-31T02:56:30;11.50;99.90
29891;DHT22;16759;49.540;8.642;2022-10-31T02:58:59;11.40;99.90
29891;DHT22;16759;49.540;8.642;2022-10-31T03:01:44;11.50;99.90
29891;DHT22;16759;49.540;8.642;2022-10-31T03:09:34;11.30;99.90
29891;DHT22;16759;49.540;8.642;2022-10-31T03:12:10;11.50;99.90
29891;DHT22;16759;49.540;8.642;2022-10-31T03:14:39;11.50;99.90
29891;DHT22;16759;49.540;8.642;2022-10-31T03:17:06;11.40;99.90
29891;DHT22;16759;49.540;8.642;2022-10-31T03:19:33;11.40;99.90
29891;DHT22;16759;49.540;8.642;2022-10-31T03:24:32;11.30;99.90
29891;DHT22;16759;49.540;8.642;2022-10-31T03:27:01;11.00;99.90
29891;DHT22;16759;49.540;8.642;2022-10-31T03:29:30;11.10;99.90
29891;DHT22;16759;49.540;8.642;2022-10-31T03:31:59;11.30;99.90
29891;DHT22;16759;49.540;8.642;2022-10-31T03:34:25;11.10;99.90
29891;DHT22;16759;49.540;8.642;2022-10-31T03:36:53;11.20;99.90
29891;DHT22;16759;49.540;8.642;2022-10-31T03:39:22;11.20;99.90
29891;DHT22;16759;49.540;8.642;2022-10-31T03:41:49;10.80;99.90
29891;DHT22;16759;49.540;8.642;2022-10-31T03:44:17;10.90;99.90
29891;DHT22;16759;49.540;8.642;2022-10-31T03:46:43;10.90;99.90
29891;DHT22;16759;49.540;8.642;2022-10-31T03:49:09;11.40;99.90
29891;DHT22;16759;49.540;8.642;2022-10-31T03:56:44;10.90;99.90
29891;DHT22;16759;49.540;8.642;2022-10-31T03:59:15;11.00;99.90
29891;DHT22;16759;49.540;8.642;2022-10-31T04:01:43;10.80;99.90
29891;DHT22;16759;49.540;8.642;2022-10-31T04:04:12;10.70;99.90
29891;DHT22;16759;49.540;8.642;2022-10-31T04:06:38;10.70;99.90
29891;DHT22;16759;49.540;8.642;2022-10-31T04:09:05;10.70;99.90
29891;DHT22;16759;49.540;8.642;2022-10-31T04:11:33;10.50;99.90
29891;DHT22;16759;49.540;8.642;2022-10-31T04:14:00;10.70;99.90
29891;DHT22;16759;49.540;8.642;2022-10-31T04:16:29;11.00;99.90
29891;DHT22;16759;49.540;8.642;2022-10-31T04:18:54;10.80;99.90
29891;DHT22;16759;49.540;8.642;2022-10-31T04:21:25;10.50;99.90
29891;DHT22;16759;49.540;8.642;2022-10-31T04:23:51;10.60;99.90
29891;DHT22;16759;49.540;8.642;2022-10-31T04:26:19;10.40;99.90
29891;DHT22;16759;49.540;8.642;2022-10-31T04:28:45;10.60;99.90
29891;DHT22;16759;49.540;8.642;2022-10-31T04:31:10;10.60;99.90
29891;DHT22;16759;49.540;8.642;2022-10-31T04:33:36;10.60;99.90
29891;DHT22;16759;49.540;8.642;2022-10-31T04:36:04;10.50;99.90
29891;DHT22;16759;49.540;8.642;2022-10-31T04:38:32;10.60;99.90
29891;DHT22;16759;49.540;8.642;2022-10-31T04:40:57;10.70;99.90
29891;DHT22;16759;49.540;8.642;2022-10-31T04:43:23;10.40;99.90
29891;DHT22;16759;49.540;8.642;2022-10-31T04:45:48;10.60;99.90
29891;DHT22;16759;49.540;8.642;2022-10-31T04:48:16;10.70;99.90
29891;DHT22;16759;49.540;8.642;2022-10-31T04:50:42;10.30;99.90
29891;DHT22;16759;49.540;8.642;2022-10-31T04:53:07;10.40;99.90
29891;DHT22;16759;49.540;8.642;2022-10-31T04:55:33;10.40;99.90
29891;DHT22;16759;49.540;8.642;2022-10-31T04:57:58;10.50;99.90
29891;DHT22;16759;49.540;8.642;2022-10-31T05:00:24;10.40;99.90
29891;DHT22;16759;49.540;8.642;2022-10-31T05:02:51;10.20;99.90
29891;DHT22;16759;49.540;8.642;2022-10-31T05:05:17;10.50;99.90
29891;DHT22;16759;49.540;8.642;2022-10-31T05:07:43;10.20;99.90
29891;DHT22;16759;49.540;8.642;2022-10-31T05:10:10;10.30;99.90
29891;DHT22;16759;49.540;8.642;2022-10-31T05:12:36;10.50;99.90
29891;DHT22;16759;49.540;8.642;2022-10-31T05:15:01;10.40;99.90
29891;DHT22;16759;49.540;8.642;2022-10-31T05:17:27;10.30;99.90
29891;DHT22;16759;49.540;8.642;2022-10-31T05:19:52;10.10;99.90
29891;DHT22;16759;49.540;8.642;2022-10-31T05:22:17;10.00;99.90
29891;DHT22;16759;49.540;8.642;2022-10-31T05:24:43;10.00;99.90
29891;DHT22;16759;49.540;8.642;2022-10-31T05:27:11;10.00;99.90
29891;DHT22;16759;49.540;8.642;2022-10-31T05:29:38;10.20;99.90
29891;DHT22;16759;49.540;8.642;2022-10-31T05:32:04;9.80;99.90
29891;DHT22;16759;49.540;8.642;2022-10-31T05:34:29;10.10;99.90
29891;DHT22;16759;49.540;8.642;2022-10-31T05:36:55;10.00;99.90
29891;DHT22;16759;49.540;8.642;2022-10-31T05:39:20;10.00;99.90
29891;DHT22;16759;49.540;8.642;2022-10-31T05:41:46;9.90;99.90
29891;DHT22;16759;49.540;8.642;2022-10-31T05:44:11;9.90;99.90
29891;DHT22;16759;49.540;8.642;2022-10-31T05:46:37;10.00;99.90
29891;DHT22;16759;49.540;8.642;2022-10-31T05:49:04;10.10;99.90
29891;DHT22;16759;49.540;8.642;2022-10-31T05:51:30;10.30;99.90
29891;DHT22;16759;49.540;8.642;2022-10-31T05:53:55;10.30;99.90
29891;DHT22;16759;49.540;8.642;2022-10-31T05:56:23;10.50;99.90
29891;DHT22;16759;49.540;8.642;2022-10-31T05:58:51;10.30;99.90
29891;DHT22;16759;49.540;8.642;2022-10-31T06:01:16;10.30;99.90
29891;DHT22;16759;49.540;8.642;2022-10-31T06:03:42;10.40;99.90
29891;DHT22;16759;49.540;8.642;2022-10-31T06:06:07;10.20;99.90
29891;DHT22;16759;49.540;8.642;2022-10-31T06:08:33;9.90;99.90
29891;DHT22;16759;49.540;8.642;2022-10-31T06:10:58;9.80;99.90
29891;DHT22;16759;49.540;8.642;2022-10-31T06:13:24;9.80;99.90
29891;DHT22;16759;49.540;8.642;2022-10-31T06:15:49;9.70;99.90
29891;DHT22;16759;49.540;8.642;2022-10-31T06:18:15;9.70;99.90
29891;DHT22;16759;49.540;8.642;2022-10-31T06:20:40;9.80;99.90
29891;DHT22;16759;49.540;8.642;2022-10-31T06:23:05;9.90;99.90
29891;DHT22;16759;49.540;8.642;2022-10-31T06:25:31;9.70;99.90
29891;DHT22;16759;49.540;8.642;2022-10-31T06:27:58;9.80;99.90
29891;DHT22;16759;49.540;8.642;2022-10-31T06:30:24;10.10;99.90
29891;DHT22;16759;49.540;8.642;2022-10-31T06:32:52;10.00;99.90
29891;DHT22;16759;49.540;8.642;2022-10-31T06:35:17;9.80;99.90
29891;DHT22;16759;49.540;8.642;2022-10-31T06:37:43;10.10;99.90
29891;DHT22;16759;49.540;8.642;2022-10-31T06:40:15;10.40;99.90
29891;DHT22;16759;49.540;8.642;2022-10-31T06:42:40;10.60;99.90
29891;DHT22;16759;49.540;8.642;2022-10-31T06:45:06;10.20;99.90
29891;DHT22;16759;49.540;8.642;2022-10-31T06:47:34;10.40;99.90
29891;DHT22;16759;49.540;8.642;2022-10-31T06:49:59;10.50;99.90
29891;DHT22;16759;49.540;8.642;2022-10-31T06:52:25;10.50;99.90
29891;DHT22;16759;49.540;8.642;2022-10-31T06:54:50;10.60;99.90
29891;DHT22;16759;49.540;8.642;2022-10-31T06:57:16;10.80;99.90
29891;DHT22;16759;49.540;8.642;2022-10-31T06:59:41;10.90;99.90
29891;DHT22;16759;49.540;8.642;2022-10-31T07:02:08;11.00;99.90
29891;DHT22;16759;49.540;8.642;2022-10-31T07:04:34;10.90;99.90
29891;DHT22;16759;49.540;8.642;2022-10-31T07:06:59;11.10;99.90
29891;DHT22;16759;49.540;8.642;2022-10-31T07:09:24;11.40;99.90
29891;DHT22;16759;49.540;8.642;2022-10-31T07:11:52;11.30;99.90
29891;DHT22;16759;49.540;8.642;2022-10-31T07:14:18;11.50;99.90
29891;DHT22;16759;49.540;8.642;2022-10-31T07:16:43;11.80;99.90
29891;DHT22;16759;49.540;8.642;2022-10-31T07:19:12;11.80;99.90
29891;DHT22;16759;49.540;8.642;2022-10-31T07:21:38;12.00;99.90
29891;DHT22;16759;49.540;8.642;2022-10-31T07:24:03;12.00;99.90
29891;DHT22;16759;49.540;8.642;2022-10-31T07:26:29;12.10;99.90
29891;DHT22;16759;49.540;8.642;2022-10-31T07:28:54;12.10;99.90
29891;DHT22;16759;49.540;8.642;2022-10-31T07:31:20;12.10;99.90
29891;DHT22;16759;49.540;8.642;2022-10-31T07:33:45;12.30;99.90
29891;DHT22;16759;49.540;8.642;2022-10-31T07:36:13;12.20;99.90
29891;DHT22;16759;49.540;8.642;2022-10-31T07:38:38;12.40;99.90
29891;DHT22;16759;49.540;8.642;2022-10-31T07:41:04;12.70;99.90
29891;DHT22;16759;49.540;8.642;2022-10-31T07:43:29;12.40;99.90
29891;DHT22;16759;49.540;8.642;2022-10-31T07:45:55;12.60;99.90
29891;DHT22;16759;49.540;8.642;2022-10-31T07:48:23;12.70;99.90
29891;DHT22;16759;49.540;8.642;2022-10-31T07:50:48;12.80;99.90
29891;DHT22;16759;49.540;8.642;2022-10-31T07:53:14;13.00;99.90
29891;DHT22;16759;49.540;8.642;2022-10-31T07:55:39;13.10;99.90
29891;DHT22;16759;49.540;8.642;2022-10-31T07:58:08;13.30;99.90
29891;DHT22;16759;49.540;8.642;2022-10-31T08:00:34;13.40;99.90
29891;DHT22;16759;49.540;8.642;2022-10-31T08:03:01;13.50;99.90
29891;DHT22;16759;49.540;8.642;2022-10-31T08:05:29;13.60;99.90
29891;DHT22;16759;49.540;8.642;2022-10-31T08:07:55;13.70;99.90
29891;DHT22;16759;49.540;8.642;2022-10-31T08:10:21;13.70;99.90
29891;DHT22;16759;49.540;8.642;2022-10-31T08:12:55;13.80;99.90
29891;DHT22;16759;49.540;8.642;2022-10-31T08:15:21;13.90;99.90
29891;DHT22;16759;49.540;8.642;2022-10-31T08:17:47;14.00;99.90
29891;DHT22;16759;49.540;8.642;2022-10-31T08:20:12;13.90;99.90
29891;DHT22;16759;49.540;8.642;2022-10-31T08:22:38;13.90;99.90
29891;DHT22;16759;49.540;8.642;2022-10-31T08:25:04;14.20;99.90
29891;DHT22;16759;49.540;8.642;2022-10-31T08:27:29;14.30;99.90
29891;DHT22;16759;49.540;8.642;2022-10-31T08:29:55;14.40;99.90
29891;DHT22;16759;49.540;8.642;2022-10-31T08:32:20;14.60;99.90
29891;DHT22;16759;49.540;8.642;2022-10-31T08:34:48;14.80;99.90
29891;DHT22;16759;49.540;8.642;2022-10-31T08:37:13;14.90;99.90
29891;DHT22;16759;49.540;8.642;2022-10-31T08:39:43;14.90;99.90
29891;DHT22;16759;49.540;8.642;2022-10-31T08:42:09;15.00;99.90
29891;DHT22;16759;49.540;8.642;2022-10-31T08:44:34;15.00;99.90
29891;DHT22;16759;49.540;8.642;2022-10-31T08:47:02;14.90;99.90
29891;DHT22;16759;49.540;8.642;2022-10-31T08:49:28;14.90;99.90
29891;DHT22;16759;49.540;8.642;2022-10-31T08:51:53;14.90;99.90
29891;DHT22;16759;49.540;8.642;2022-10-31T08:54:19;14.90;99.90
29891;DHT22;16759;49.540;8.642;2022-10-31T08:56:44;15.00;99.90
29891;DHT22;16759;49.540;8.642;2022-10-31T08:59:10;15.10;99.90
29891;DHT22;16759;49.540;8.642;2022-10-31T09:01:35;15.20;99.90
29891;DHT22;16759;49.540;8.642;2022-10-31T09:04:00;15.30;99.90
29891;DHT22;16759;49.540;8.642;2022-10-31T09:06:28;15.10;99.90
29891;DHT22;16759;49.540;8.642;2022-10-31T09:08:54;15.30;99.90
29891;DHT22;16759;49.540;8.642;2022-10-31T09:11:19;15.20;99.90
29891;DHT22;16759;49.540;8.642;2022-10-31T09:13:44;15.20;99.90
29891;DHT22;16759;49.540;8.642;2022-10-31T09:16:10;15.30;99.90
29891;DHT22;16759;49.540;8.642;2022-10-31T09:18:35;15.30;99.90
29891;DHT22;16759;49.540;8.642;2022-10-31T09:21:01;15.40;99.90
29891;DHT22;16759;49.540;8.642;2022-10-31T09:23:27;15.60;99.90
29891;DHT22;16759;49.540;8.642;2022-10-31T09:25:52;15.70;99.90
29891;DHT22;16759;49.540;8.642;2022-10-31T09:28:19;15.90;99.90
29891;DHT22;16759;49.540;8.642;2022-10-31T09:30:48;16.10;99.90
29891;DHT22;16759;49.540;8.642;2022-10-31T09:33:14;16.20;99.90
29891;DHT22;16759;49.540;8.642;2022-10-31T09:35:42;16.40;99.90
29891;DHT22;16759;49.540;8.642;2022-10-31T09:38:11;16.30;99.90
29891;DHT22;16759;49.540;8.642;2022-10-31T09:40:38;16.40;99.90
29891;DHT22;16759;49.540;8.642;2022-10-31T09:45:57;16.60;99.90
29891;DHT22;16759;49.540;8.642;2022-10-31T09:48:40;16.50;99.90
29891;DHT22;16759;49.540;8.642;2022-10-31T09:51:08;16.30;99.90
29891;DHT22;16759;49.540;8.642;2022-10-31T09:53:51;16.60;99.90
29891;DHT22;16759;49.540;8.642;2022-10-31T09:56:19;16.80;99.90
29891;DHT22;16759;49.540;8.642;2022-10-31T09:58:46;16.90;99.90
29891;DHT22;16759;49.540;8.642;2022-10-31T10:03:50;17.10;99.90
29891;DHT22;16759;49.540;8.642;2022-10-31T10:06:19;17.10;99.90
29891;DHT22;16759;49.540;8.642;2022-10-31T10:08:46;17.20;99.90
29891;DHT22;16759;49.540;8.642;2022-10-31T10:13:44;17.20;99.90
29891;DHT22;16759;49.540;8.642;2022-10-31T10:24:09;17.40;99.90
29891;DHT22;16759;49.540;8.642;2022-10-31T10:26:37;17.40;99.90
29891;DHT22;16759;49.540;8.642;2022-10-31T10:29:16;17.50;99.90
29891;DHT22;16759;49.540;8.642;2022-10-31T10:31:43;17.80;99.90
29891;DHT22;16759;49.540;8.642;2022-10-31T10:36:52;18.00;99.90
29891;DHT22;16759;49.540;8.642;2022-10-31T10:39:29;18.30;99.90
29891;DHT22;16759;49.540;8.642;2022-10-31T10:41:57;18.40;99.90
29891;DHT22;16759;49.540;8.642;2022-10-31T10:44:43;18.20;99.90
29891;DHT22;16759;49.540;8.642;2022-10-31T10:47:33;17.90;99.90
29891;DHT22;16759;49.540;8.642;2022-10-31T10:50:20;17.90;99.90
29891;DHT22;16759;49.540;8.642;2022-10-31T10:55:40;18.30;99.90
29891;DHT22;16759;49.540;8.642;2022-10-31T10:58:10;18.10;99.90
29891;DHT22;16759;49.540;8.642;2022-10-31T11:00:40;17.80;99.90
29891;DHT22;16759;49.540;8.642;2022-10-31T11:03:08;17.80;99.90
29891;DHT22;16759;49.540;8.642;2022-10-31T11:05:39;17.60;99.90
29891;DHT22;16759;49.540;8.642;2022-10-31T11:08:05;17.90;99.90
29891;DHT22;16759;49.540;8.642;2022-10-31T11:10:31;18.10;99.90
29891;DHT22;16759;49.540;8.642;2022-10-31T11:13:40;18.20;99.90
29891;DHT22;16759;49.540;8.642;2022-10-31T11:15:51;18.20;99.90
29891;DHT22;16759;49.540;8.642;2022-10-31T11:18:20;18.30;99.90
29891;DHT22;16759;49.540;8.642;2022-10-31T11:20:50;18.30;99.90
29891;DHT22;16759;49.540;8.642;2022-10-31T11:23:17;18.50;99.90
29891;DHT22;16759;49.540;8.642;2022-10-31T11:25:50;18.50;99.90
29891;DHT22;16759;49.540;8.642;2022-10-31T11:28:16;18.40;99.90
29891;DHT22;16759;49.540;8.642;2022-10-31T11:30:42;18.50;99.90
29891;DHT22;16759;49.540;8.642;2022-10-31T11:33:19;18.50;99.90
29891;DHT22;16759;49.540;8.642;2022-10-31T11:35:46;18.50;99.90
29891;DHT22;16759;49.540;8.642;2022-10-31T11:38:15;18.40;99.90
29891;DHT22;16759;49.540;8.642;2022-10-31T11:40:50;18.30;99.90
29891;DHT22;16759;49.540;8.642;2022-10-31T11:43:18;18.50;99.90
29891;DHT22;16759;49.540;8.642;2022-10-31T11:45:44;18.50;99.90
29891;DHT22;16759;49.540;8.642;2022-10-31T11:48:16;18.50;99.90
29891;DHT22;16759;49.540;8.642;2022-10-31T11:50:42;18.80;99.90
29891;DHT22;16759;49.540;8.642;2022-10-31T11:53:14;18.80;99.90
29891;DHT22;16759;49.540;8.642;2022-10-31T11:55:40;18.90;99.90
29891;DHT22;16759;49.540;8.642;2022-10-31T11:58:19;18.80;99.90
29891;DHT22;16759;49.540;8.642;2022-10-31T12:00:48;18.80;99.90
29891;DHT22;16759;49.540;8.642;2022-10-31T12:06:13;19.00;99.90
29891;DHT22;16759;49.540;8.642;2022-10-31T12:08:36;19.00;99.90
29891;DHT22;16759;49.540;8.642;2022-10-31T12:13:48;19.30;99.90
29891;DHT22;16759;49.540;8.642;2022-10-31T12:16:25;19.30;99.90
29891;DHT22;16759;49.540;8.642;2022-10-31T12:21:33;19.70;99.90
29891;DHT22;16759;49.540;8.642;2022-10-31T12:26:58;19.20;99.90
29891;DHT22;16759;49.540;8.642;2022-10-31T12:37:51;18.90;99.90
29891;DHT22;16759;49.540;8.642;2022-10-31T12:55:46;18.40;99.90
29891;DHT22;16759;49.540;8.642;2022-10-31T12:58:17;18.50;99.90
29891;DHT22;16759;49.540;8.642;2022-10-31T13:00:44;18.60;99.90
29891;DHT22;16759;49.540;8.642;2022-10-31T13:03:28;18.50;99.90
29891;DHT22;16759;49.540;8.642;2022-10-31T13:05:59;18.40;99.90
29891;DHT22;16759;49.540;8.642;2022-10-31T13:08:38;18.30;99.90
29891;DHT22;16759;49.540;8.642;2022-10-31T13:11:10;18.40;99.90
29891;DHT22;16759;49.540;8.642;2022-10-31T13:13:56;18.40;99.90
29891;DHT22;16759;49.540;8.642;2022-10-31T13:16:28;18.30;99.90
29891;DHT22;16759;49.540;8.642;2022-10-31T13:19:01;18.20;99.90
29891;DHT22;16759;49.540;8.642;2022-10-31T13:21:36;18.30;99.90
29891;DHT22;16759;49.540;8.642;2022-10-31T13:24:03;18.40;99.90
29891;DHT22;16759;49.540;8.642;2022-10-31T13:29:03;18.30;99.90
29891;DHT22;16759;49.540;8.642;2022-10-31T13:31:31;18.20;99.90
29891;DHT22;16759;49.540;8.642;2022-10-31T13:34:08;18.30;99.90
29891;DHT22;16759;49.540;8.642;2022-10-31T13:36:45;18.10;99.90
29891;DHT22;16759;49.540;8.642;2022-10-31T13:42:04;17.90;99.90
29891;DHT22;16759;49.540;8.642;2022-10-31T13:44:34;17.90;99.90
29891;DHT22;16759;49.540;8.642;2022-10-31T13:47:03;17.90;99.90
29891;DHT22;16759;49.540;8.642;2022-10-31T13:52:12;18.90;99.90
29891;DHT22;16759;49.540;8.642;2022-10-31T13:54:39;20.20;99.90
29891;DHT22;16759;49.540;8.642;2022-10-31T13:59:52;25.90;99.90
29891;DHT22;16759;49.540;8.642;2022-10-31T14:02:23;25.60;99.90
29891;DHT22;16759;49.540;8.642;2022-10-31T14:04:51;24.50;99.90
29891;DHT22;16759;49.540;8.642;2022-10-31T14:07:18;22.80;99.90
29891;DHT22;16759;49.540;8.642;2022-10-31T14:09:59;21.40;99.90
29891;DHT22;16759;49.540;8.642;2022-10-31T14:12:37;20.20;99.90
29891;DHT22;16759;49.540;8.642;2022-10-31T14:15:13;19.30;99.90
29891;DHT22;16759;49.540;8.642;2022-10-31T14:17:50;19.20;99.90
29891;DHT22;16759;49.540;8.642;2022-10-31T14:22:42;19.10;99.90
29891;DHT22;16759;49.540;8.642;2022-10-31T14:27:51;19.60;99.90
29891;DHT22;16759;49.540;8.642;2022-10-31T14:30:19;19.60;99.90
29891;DHT22;16759;49.540;8.642;2022-10-31T14:32:47;19.80;99.90
29891;DHT22;16759;49.540;8.642;2022-10-31T14:35:14;19.60;99.90
29891;DHT22;16759;49.540;8.642;2022-10-31T14:52:49;18.40;99.90
29891;DHT22;16759;49.540;8.642;2022-10-31T14:55:15;18.20;99.90
29891;DHT22;16759;49.540;8.642;2022-10-31T14:57:49;18.00;99.90
29891;DHT22;16759;49.540;8.642;2022-10-31T15:00:19;17.80;99.90
29891;DHT22;16759;49.540;8.642;2022-10-31T15:03:09;17.50;99.90
29891;DHT22;16759;49.540;8.642;2022-10-31T15:05:41;17.50;99.90
29891;DHT22;16759;49.540;8.642;2022-10-31T15:08:13;17.50;99.90
29891;DHT22;16759;49.540;8.642;2022-10-31T15:10:39;17.50;99.90
29891;DHT22;16759;49.540;8.642;2022-10-31T15:13:10;17.60;99.90
29891;DHT22;16759;49.540;8.642;2022-10-31T15:15:39;17.50;99.90
29891;DHT22;16759;49.540;8.642;2022-10-31T15:18:05;17.40;99.90
29891;DHT22;16759;49.540;8.642;2022-10-31T15:20:33;17.40;99.90
29891;DHT22;16759;49.540;8.642;2022-10-31T15:23:03;17.20;99.90
29891;DHT22;16759;49.540;8.642;2022-10-31T15:25:30;17.30;99.90
29891;DHT22;16759;49.540;8.642;2022-10-31T15:27:57;17.20;99.90
29891;DHT22;16759;49.540;8.642;2022-10-31T15:30:23;17.10;99.90
29891;DHT22;16759;49.540;8.642;2022-10-31T15:32:54;17.00;99.90
29891;DHT22;16759;49.540;8.642;2022-10-31T15:35:26;16.90;99.90
29891;DHT22;16759;49.540;8.642;2022-10-31T15:37:53;16.90;99.90
29891;DHT22;16759;49.540;8.642;2022-10-31T15:40:19;16.80;99.90
29891;DHT22;16759;49.540;8.642;2022-10-31T15:42:48;16.70;99.90
29891;DHT22;16759;49.540;8.642;2022-10-31T15:45:16;16.70;99.90
29891;DHT22;16759;49.540;8.642;2022-10-31T15:47:45;16.70;99.90
29891;DHT22;16759;49.540;8.642;2022-10-31T15:50:19;16.70;99.90
29891;DHT22;16759;49.540;8.642;2022-10-31T15:52:46;16.60;99.90
29891;DHT22;16759;49.540;8.642;2022-10-31T15:55:19;16.60;99.90
29891;DHT22;16759;49.540;8.642;2022-10-31T15:57:49;16.60;99.90
29891;DHT22;16759;49.540;8.642;2022-10-31T16:00:27;16.50;99.90
29891;DHT22;16759;49.540;8.642;2022-10-31T16:03:02;16.50;99.90
29891;DHT22;16759;49.540;8.642;2022-10-31T16:05:33;16.40;99.90
29891;DHT22;16759;49.540;8.642;2022-10-31T16:07:59;16.40;99.90
29891;DHT22;16759;49.540;8.642;2022-10-31T16:10:27;16.40;99.90
29891;DHT22;16759;49.540;8.642;2022-10-31T16:12:52;16.30;99.90
29891;DHT22;16759;49.540;8.642;2022-10-31T16:15:19;16.20;99.90
29891;DHT22;16759;49.540;8.642;2022-10-31T16:17:45;16.30;99.90
29891;DHT22;16759;49.540;8.642;2022-10-31T16:20:28;16.20;99.90
29891;DHT22;16759;49.540;8.642;2022-10-31T16:22:54;16.20;99.90
29891;DHT22;16759;49.540;8.642;2022-10-31T16:27:49;16.10;99.90
29891;DHT22;16759;49.540;8.642;2022-10-31T16:32:56;16.00;99.90
29891;DHT22;16759;49.540;8.642;2022-10-31T16:37:49;15.90;99.90
29891;DHT22;16759;49.540;8.642;2022-10-31T16:40:15;15.90;99.90
29891;DHT22;16759;49.540;8.642;2022-10-31T16:42:41;16.20;99.90
29891;DHT22;16759;49.540;8.642;2022-10-31T16:45:06;16.20;99.90
29891;DHT22;16759;49.540;8.642;2022-10-31T16:47:33;16.30;99.90
29891;DHT22;16759;49.540;8.642;2022-10-31T16:49:59;16.30;99.90
29891;DHT22;16759;49.540;8.642;2022-10-31T16:52:25;16.20;99.90
29891;DHT22;16759;49.540;8.642;2022-10-31T16:54:51;16.20;99.90
29891;DHT22;16759;49.540;8.642;2022-10-31T16:57:25;16.10;99.90
29891;DHT22;16759;49.540;8.642;2022-10-31T16:59:54;16.00;99.90
29891;DHT22;16759;49.540;8.642;2022-10-31T17:02:20;15.90;99.90
29891;DHT22;16759;49.540;8.642;2022-10-31T17:04:45;16.00;99.90
29891;DHT22;16759;49.540;8.642;2022-10-31T17:07:11;16.00;99.90
29891;DHT22;16759;49.540;8.642;2022-10-31T17:09:36;16.00;99.90
29891;DHT22;16759;49.540;8.642;2022-10-31T17:12:02;15.90;99.90
29891;DHT22;16759;49.540;8.642;2022-10-31T17:14:27;15.80;99.90
29891;DHT22;16759;49.540;8.642;2022-10-31T17:16:53;15.70;99.90
29891;DHT22;16759;49.540;8.642;2022-10-31T17:19:18;15.70;99.90
29891;DHT22;16759;49.540;8.642;2022-10-31T17:21:46;15.60;99.90
29891;DHT22;16759;49.540;8.642;2022-10-31T17:24:14;15.50;99.90
29891;DHT22;16759;49.540;8.642;2022-10-31T17:26:40;15.40;99.90
29891;DHT22;16759;49.540;8.642;2022-10-31T17:29:05;15.30;99.90
29891;DHT22;16759;49.540;8.642;2022-10-31T17:31:31;15.20;99.90
29891;DHT22;16759;49.540;8.642;2022-10-31T17:33:58;15.20;99.90
29891;DHT22;16759;49.540;8.642;2022-10-31T17:36:24;15.20;99.90
29891;DHT22;16759;49.540;8.642;2022-10-31T17:38:50;15.10;99.90
29891;DHT22;16759;49.540;8.642;2022-10-31T17:41:15;15.00;99.90
29891;DHT22;16759;49.540;8.642;2022-10-31T17:43:41;15.10;99.90
29891;DHT22;16759;49.540;8.642;2022-10-31T17:46:06;15.10;99.90